Time;durP1;ratioP1;P1;durP2;ratioP2;P2;SDS_P1;SDS_P2;PMS_P1;PMS_P2;Temp;Humidity;BMP_temperature;BMP_pressure;BME280_temperature;BME280_humidity;BME280_pressure;Samples;Min_cycle;Max_cycle;Signal;HPM_P1;HPM_P2
2020/12/20 00:00:43;;;;;;;0.00;0.00;;;16.20;86.50;;;;;;4231446;28;20523;-42
2020/12/20 00:03:04;;;;;;;0.05;0.05;;;16.10;86.30;;;;;;4231156;28;20422;-42
2020/12/20 00:05:27;;;;;;;0.00;0.00;;;16.20;86.40;;;;;;4231679;28;20163;-42
2020/12/20 00:07:48;;;;;;;0.10;0.10;;;16.10;86.50;;;;;;4231308;28;20047;-42
2020/12/20 00:10:11;;;;;;;0.00;0.00;;;16.10;86.70;;;;;;4231551;28;20751;-42
2020/12/20 00:12:32;;;;;;;0.30;0.30;;;16.00;86.80;;;;;;4231253;28;20044;-42
2020/12/20 00:14:54;;;;;;;0.00;0.00;;;16.00;87.10;;;;;;4231161;27;20051;-41
2020/12/20 00:17:16;;;;;;;0.20;0.20;;;15.90;87.20;;;;;;4231209;28;20101;-42
2020/12/20 00:19:39;;;;;;;0.00;0.00;;;15.90;87.50;;;;;;4230891;28;20075;-42
2020/12/20 00:22:03;;;;;;;0.75;0.75;;;15.80;87.60;;;;;;4231601;28;20138;-42
2020/12/20 00:24:25;;;;;;;0.00;0.00;;;15.80;87.80;;;;;;4230963;28;20472;-42
2020/12/20 00:26:48;;;;;;;0.00;0.00;;;15.70;87.90;;;;;;4217262;28;20075;-43
2020/12/20 00:29:09;;;;;;;0.00;0.00;;;15.70;88.20;;;;;;4231278;28;20495;-44
2020/12/20 00:31:31;;;;;;;0.00;0.00;;;15.80;87.80;;;;;;4230717;28;20048;-42
2020/12/20 00:33:52;;;;;;;0.00;0.00;;;16.00;87.20;;;;;;4231316;28;20067;-43
2020/12/20 00:36:13;;;;;;;0.10;0.10;;;16.00;86.90;;;;;;4230820;28;20148;-43
2020/12/20 00:38:34;;;;;;;2.17;1.00;;;16.10;86.60;;;;;;4230790;28;20538;-42
2020/12/20 00:40:55;;;;;;;0.00;0.00;;;16.00;86.60;;;;;;4230573;27;20044;-42
2020/12/20 00:43:16;;;;;;;0.00;0.00;;;16.00;86.70;;;;;;4230868;28;20075;-42
2020/12/20 00:45:37;;;;;;;0.00;0.00;;;16.00;86.80;;;;;;4230902;28;20130;-43
2020/12/20 00:47:59;;;;;;;0.00;0.00;;;15.90;87.00;;;;;;4230618;28;20044;-43
2020/12/20 00:50:21;;;;;;;0.00;0.00;;;15.90;87.20;;;;;;4230578;28;20058;-43
2020/12/20 00:52:42;;;;;;;4.75;1.92;;;15.80;87.30;;;;;;4230568;28;20056;-42
2020/12/20 00:55:06;;;;;;;0.00;0.00;;;15.80;87.50;;;;;;4229686;28;20555;-42
2020/12/20 00:57:28;;;;;;;;;;;15.80;87.70;;;;;;4229869;28;20043;-42
2020/12/20 00:59:50;;;;;;;0.00;0.00;;;16.00;86.80;;;;;;4214957;28;19990;-43
2020/12/20 01:02:11;;;;;;;0.10;0.10;;;16.30;85.30;;;;;;4229554;28;20056;-42
2020/12/20 01:04:33;;;;;;;0.00;0.00;;;16.50;85.20;;;;;;4229547;28;20442;-43
2020/12/20 01:06:55;;;;;;;0.00;0.00;;;16.70;83.60;;;;;;4229499;28;20058;-42
2020/12/20 01:09:18;;;;;;;0.00;0.00;;;16.70;83.40;;;;;;4229372;28;20868;-54
2020/12/20 01:11:41;;;;;;;0.00;0.00;;;16.60;83.40;;;;;;4229214;28;20131;-43
2020/12/20 01:14:04;;;;;;;0.00;0.00;;;16.60;83.60;;;;;;4230675;28;20490;-42
2020/12/20 01:16:29;;;;;;;0.00;0.00;;;16.60;83.90;;;;;;4228984;28;20134;-42
2020/12/20 01:18:54;;;;;;;0.15;0.15;;;16.50;84.20;;;;;;4230271;28;20051;-42
2020/12/20 01:21:16;;;;;;;0.00;0.00;;;16.40;84.60;;;;;;4230128;28;20132;-42
2020/12/20 01:23:39;;;;;;;0.00;0.00;;;16.40;84.80;;;;;;4229150;28;20299;-42
2020/12/20 01:26:00;;;;;;;0.00;0.00;;;16.50;84.30;;;;;;4228875;28;20051;-42
2020/12/20 01:28:21;;;;;;;0.00;0.00;;;16.60;83.80;;;;;;4228934;28;20061;-42
2020/12/20 01:30:41;;;;;;;0.00;0.00;;;16.70;83.30;;;;;;4229207;28;20449;-42
2020/12/20 01:33:05;;;;;;;0.00;0.00;;;16.70;83.30;;;;;;4228883;28;20517;-42
2020/12/20 01:35:32;;;;;;;0.43;0.43;;;16.70;83.30;;;;;;4229056;28;20083;-43
2020/12/20 01:37:54;;;;;;;0.52;0.52;;;16.70;83.40;;;;;;4228626;28;20054;-42
2020/12/20 01:40:15;;;;;;;0.00;0.00;;;16.60;84.50;;;;;;4228709;28;20127;-42
2020/12/20 01:42:38;;;;;;;0.00;0.00;;;16.60;83.70;;;;;;4228757;28;20051;-42
2020/12/20 01:45:08;;;;;;;0.15;0.15;;;16.60;83.80;;;;;;4228440;28;20048;-42
2020/12/20 01:47:34;;;;;;;0.00;0.00;;;16.70;83.60;;;;;;4213526;28;20079;-42
2020/12/20 01:50:03;;;;;;;0.00;0.00;;;16.80;82.90;;;;;;4229018;28;20529;-42
2020/12/20 01:52:25;;;;;;;0.10;0.10;;;16.90;83.00;;;;;;4228746;28;20052;-42
2020/12/20 01:54:49;;;;;;;;;;;17.00;81.80;;;;;;4228938;28;20075;-42
2020/12/20 01:57:18;;;;;;;0.00;0.00;;;17.00;81.80;;;;;;4228018;28;19923;-42
2020/12/20 01:59:52;;;;;;;0.00;0.00;;;17.00;81.90;;;;;;4228440;28;20055;-42
2020/12/20 02:02:17;;;;;;;0.00;0.00;;;17.00;82.00;;;;;;4228449;28;20130;-41
2020/12/20 02:04:42;;;;;;;0.30;0.30;;;17.00;81.80;;;;;;4228606;28;20474;-41
2020/12/20 02:07:04;;;;;;;0.20;0.20;;;17.00;82.50;;;;;;4228167;28;20112;-42
2020/12/20 02:09:25;;;;;;;0.00;0.00;;;17.00;81.80;;;;;;4228716;28;20134;-41
2020/12/20 02:11:48;;;;;;;0.00;0.00;;;16.90;82.10;;;;;;4228329;28;20079;-41
2020/12/20 02:14:12;;;;;;;0.08;0.08;;;16.90;82.50;;;;;;4228484;28;20577;-42
2020/12/20 02:16:46;;;;;;;0.00;0.00;;;16.80;82.80;;;;;;4228134;28;20048;-42
2020/12/20 02:19:08;;;;;;;;;;;16.70;83.20;;;;;;4229869;28;20052;-42
2020/12/20 02:21:29;;;;;;;0.00;0.00;;;16.60;83.50;;;;;;4228530;28;19926;-41
2020/12/20 02:23:56;;;;;;;0.52;0.52;;;16.50;84.00;;;;;;4211269;28;20818;-42
2020/12/20 02:26:27;;;;;;;0.00;0.00;;;16.40;84.40;;;;;;4224463;28;20137;-42
2020/12/20 02:28:49;;;;;;;0.00;0.00;;;16.40;84.80;;;;;;4228203;28;20047;-43
2020/12/20 02:31:13;;;;;;;2.28;0.45;;;16.50;84.70;;;;;;4228044;28;20085;-42
2020/12/20 02:33:36;;;;;;;0.00;0.00;;;16.60;84.10;;;;;;4228255;28;20055;-42
2020/12/20 02:36:00;;;;;;;0.00;0.00;;;16.70;83.70;;;;;;4228345;28;20134;-42
2020/12/20 02:38:22;;;;;;;0.00;0.00;;;16.90;82.80;;;;;;4227868;28;20059;-42
2020/12/20 02:41:02;;;;;;;0.00;0.00;;;17.10;81.90;;;;;;4229036;28;20135;-42
2020/12/20 02:43:25;;;;;;;0.00;0.00;;;17.10;81.40;;;;;;4229158;28;20051;-42
2020/12/20 02:45:46;;;;;;;0.00;0.00;;;17.20;82.10;;;;;;4227210;28;20518;-44
2020/12/20 02:48:07;;;;;;;0.00;0.00;;;17.10;81.30;;;;;;4229367;28;20493;-45
2020/12/20 02:50:35;;;;;;;0.00;0.00;;;17.10;81.50;;;;;;4227938;28;20060;-45
2020/12/20 02:52:56;;;;;;;0.00;0.00;;;17.00;81.70;;;;;;4229414;28;20047;-47
2020/12/20 02:55:20;;;;;;;0.00;0.00;;;16.90;82.10;;;;;;4228055;28;20062;-46
2020/12/20 02:57:47;;;;;;;0.20;0.20;;;16.80;82.60;;;;;;4227660;28;20123;-43
2020/12/20 03:00:28;;;;;;;0.30;0.30;;;16.70;83.00;;;;;;4228622;28;20048;-43
2020/12/20 03:02:51;;;;;;;0.00;0.00;;;16.60;83.50;;;;;;4227735;28;20076;-45
2020/12/20 03:05:11;;;;;;;0.00;0.00;;;16.60;83.90;;;;;;4228136;28;20048;-41
2020/12/20 03:07:32;;;;;;;0.00;0.00;;;16.60;84.20;;;;;;4227953;28;20460;-41
2020/12/20 03:09:54;;;;;;;0.20;0.20;;;16.60;83.70;;;;;;4227805;28;20105;-42
2020/12/20 03:12:17;;;;;;;0.00;0.00;;;16.80;83.20;;;;;;4227871;28;20509;-42
2020/12/20 03:14:38;;;;;;;0.00;0.00;;;16.80;82.80;;;;;;4217253;28;20094;-41
2020/12/20 03:17:00;;;;;;;0.00;0.00;;;16.80;82.60;;;;;;4230843;28;20050;-42
2020/12/20 03:19:21;;;;;;;0.00;0.00;;;16.90;82.50;;;;;;4232069;28;20062;-42
2020/12/20 03:21:47;;;;;;;0.13;0.13;;;16.90;82.40;;;;;;4231105;28;20052;-42
2020/12/20 03:24:31;;;;;;;0.00;0.00;;;16.80;82.50;;;;;;4232201;28;20055;-41
2020/12/20 03:27:14;;;;;;;0.00;0.00;;;16.80;82.80;;;;;;4231961;28;20131;-42
2020/12/20 03:29:55;;;;;;;0.25;0.25;;;16.80;83.00;;;;;;4231864;28;20838;-42
2020/12/20 03:32:45;;;;;;;0.13;0.13;;;16.90;82.30;;;;;;4228754;27;20056;-42
2020/12/20 03:35:45;;;;;;;0.00;0.00;;;17.10;81.60;;;;;;4225052;28;20047;-42
2020/12/20 03:38:07;;;;;;;0.00;0.00;;;17.10;81.50;;;;;;4230422;28;20051;-42
2020/12/20 03:40:32;;;;;;;0.00;0.00;;;17.10;81.30;;;;;;4230700;28;20075;-42
2020/12/20 03:42:53;;;;;;;0.08;0.08;;;17.10;81.20;;;;;;4230823;28;20540;-41
2020/12/20 03:45:18;;;;;;;0.00;0.00;;;17.10;81.50;;;;;;4230418;28;20055;-42
2020/12/20 03:47:40;;;;;;;0.10;0.10;;;17.00;81.70;;;;;;4230874;28;20055;-41
2020/12/20 03:50:01;;;;;;;0.00;0.00;;;16.90;82.00;;;;;;4230247;28;20138;-43
2020/12/20 03:52:23;;;;;;;0.32;0.32;;;17.00;82.00;;;;;;4230802;28;20047;-42
2020/12/20 03:55:00;;;;;;;0.00;0.00;;;17.00;81.80;;;;;;4230266;28;20513;-42
2020/12/20 03:57:21;;;;;;;0.00;0.00;;;17.00;81.70;;;;;;4217109;28;20477;-41
2020/12/20 03:59:43;;;;;;;0.00;0.00;;;17.00;82.00;;;;;;4230042;28;20051;-42
2020/12/20 04:02:08;;;;;;;0.10;0.10;;;17.00;82.00;;;;;;4230530;28;20100;-42
2020/12/20 04:04:29;;;;;;;0.00;0.00;;;17.00;81.70;;;;;;4230544;28;20062;-41
2020/12/20 04:06:50;;;;;;;0.00;0.00;;;17.10;81.60;;;;;;4231092;28;20044;-42
2020/12/20 04:09:17;;;;;;;0.00;0.00;;;17.00;81.70;;;;;;4230163;28;20055;-42
2020/12/20 04:11:47;;;;;;;0.00;0.00;;;17.00;81.90;;;;;;4230160;28;20059;-42
2020/12/20 04:14:10;;;;;;;0.50;0.50;;;17.00;81.90;;;;;;4230001;28;20048;-43
2020/12/20 04:16:33;;;;;;;0.00;0.00;;;17.00;81.80;;;;;;4229982;28;20050;-42
2020/12/20 04:18:55;;;;;;;;;;;17.00;81.70;;;;;;4230427;28;20051;-42
2020/12/20 04:21:25;;;;;;;0.30;0.30;;;17.10;81.50;;;;;;4230137;28;19923;-41
2020/12/20 04:23:46;;;;;;;0.00;0.00;;;17.10;81.50;;;;;;4230255;28;20309;-44
2020/12/20 04:26:13;;;;;;;0.00;0.00;;;17.10;81.50;;;;;;4229845;28;20054;-42
2020/12/20 04:29:03;;;;;;;0.55;0.55;;;17.10;81.50;;;;;;4228453;28;20057;-41
2020/12/20 04:31:33;;;;;;;0.00;0.00;;;17.20;81.00;;;;;;4229838;28;20070;-41
2020/12/20 04:33:55;;;;;;;1.20;1.10;;;17.40;80.20;;;;;;4229928;28;20051;-42
2020/12/20 04:36:21;;;;;;;0.00;0.00;;;17.50;79.70;;;;;;4230242;28;20044;-42
2020/12/20 04:38:42;;;;;;;0.00;0.00;;;17.50;79.50;;;;;;4229478;28;20529;-42
2020/12/20 04:41:03;;;;;;;0.00;0.00;;;17.50;79.50;;;;;;4229957;28;20126;-42
2020/12/20 04:43:25;;;;;;;;;;;17.40;79.60;;;;;;4228089;28;20060;-42
2020/12/20 04:45:53;;;;;;;0.00;0.00;;;17.30;80.10;;;;;;4243084;27;19927;-42
2020/12/20 04:48:35;;;;;;;0.00;0.00;;;17.20;80.60;;;;;;4229818;28;20097;-42
2020/12/20 04:51:00;;;;;;;1.55;1.10;;;17.10;81.20;;;;;;4229425;28;20132;-42
2020/12/20 04:53:23;;;;;;;0.00;0.00;;;17.00;82.50;;;;;;4229670;28;20077;-42
2020/12/20 04:55:54;;;;;;;0.20;0.20;;;16.90;82.10;;;;;;4229678;28;20056;-42
2020/12/20 04:58:29;;;;;;;0.00;0.00;;;16.80;82.70;;;;;;4229249;28;20108;-42
2020/12/20 05:00:54;;;;;;;4.68;0.75;;;16.90;82.50;;;;;;4229595;28;20066;-42
2020/12/20 05:03:16;;;;;;;0.00;0.00;;;17.00;82.00;;;;;;4229382;28;20058;-42
2020/12/20 05:05:42;;;;;;;0.00;0.00;;;17.00;81.60;;;;;;4229341;28;20567;-42
2020/12/20 05:08:04;;;;;;;0.98;0.98;;;17.10;81.50;;;;;;4229876;28;20052;-42
2020/12/20 05:10:38;;;;;;;0.10;0.10;;;17.10;81.50;;;;;;4230188;28;20051;-42
2020/12/20 05:13:00;;;;;;;4.00;2.47;;;17.10;81.50;;;;;;4229194;28;20051;-42
2020/12/20 05:15:25;;;;;;;0.00;0.00;;;17.30;80.90;;;;;;4229227;28;20052;-42
2020/12/20 05:18:13;;;;;;;0.00;0.00;;;17.40;80.20;;;;;;4228395;28;20059;-42
2020/12/20 05:20:43;;;;;;;0.10;0.10;;;17.40;79.60;;;;;;4229520;28;20054;-42
2020/12/20 05:23:10;;;;;;;0.05;0.05;;;17.40;79.70;;;;;;4229166;28;20230;-41
2020/12/20 05:25:36;;;;;;;0.00;0.00;;;17.40;80.00;;;;;;4229059;28;20081;-42
2020/12/20 05:28:11;;;;;;;0.00;0.00;;;17.30;80.20;;;;;;4230327;28;20558;-42
2020/12/20 05:30:36;;;;;;;0.00;0.00;;;17.20;80.70;;;;;;4228865;28;20233;-42
2020/12/20 05:33:27;;;;;;;0.63;0.63;;;17.10;81.20;;;;;;4228911;28;20575;-42
2020/12/20 05:36:03;;;;;;;0.20;0.20;;;17.00;81.70;;;;;;4228942;28;20048;-42
2020/12/20 05:38:24;;;;;;;0.10;0.10;;;16.90;82.20;;;;;;4228709;28;20051;-42
2020/12/20 05:40:47;;;;;;;;;;;16.90;82.00;;;;;;4229262;28;20134;-42
2020/12/20 05:43:09;;;;;;;0.00;0.00;;;17.10;81.50;;;;;;4228684;28;19930;-42
2020/12/20 05:45:39;;;;;;;0.00;0.00;;;17.20;81.10;;;;;;4229588;27;20144;-42
2020/12/20 05:48:21;;;;;;;0.17;0.17;;;17.20;81.90;;;;;;4228553;28;20051;-42
2020/12/20 05:50:55;;;;;;;0.00;0.00;;;17.10;81.10;;;;;;4228340;28;20051;-42
2020/12/20 05:53:22;;;;;;;2.17;0.98;;;17.10;81.50;;;;;;4228854;28;20528;-41
2020/12/20 05:55:44;;;;;;;0.98;0.98;;;17.10;81.50;;;;;;4229440;27;20076;-42
2020/12/20 05:58:09;;;;;;;6.97;0.65;;;17.20;81.10;;;;;;4229190;28;20055;-42
2020/12/20 06:00:35;;;;;;;0.00;0.00;;;17.40;80.00;;;;;;4229379;28;20508;-42
2020/12/20 06:02:57;;;;;;;0.05;0.05;;;17.50;79.50;;;;;;4229944;28;20054;-42
2020/12/20 06:05:18;;;;;;;0.08;0.08;;;17.60;79.40;;;;;;4229891;28;20062;-42
2020/12/20 06:07:46;;;;;;;0.00;0.00;;;17.50;79.40;;;;;;4228192;28;20051;-43
2020/12/20 06:10:13;;;;;;;0.00;0.00;;;17.50;79.60;;;;;;4229187;28;20059;-41
2020/12/20 06:12:48;;;;;;;0.00;0.00;;;17.40;79.90;;;;;;4228273;28;20043;-42
2020/12/20 06:15:12;;;;;;;0.10;0.10;;;17.30;81.10;;;;;;4229644;28;20051;-42
2020/12/20 06:17:44;;;;;;;0.25;0.25;;;17.20;80.70;;;;;;4229387;28;20059;-42
2020/12/20 06:20:06;;;;;;;0.00;0.00;;;17.10;81.20;;;;;;4229247;28;20485;-42
2020/12/20 06:22:52;;;;;;;0.93;0.93;;;17.00;81.70;;;;;;4229486;28;20055;-42
2020/12/20 06:25:17;;;;;;;2.20;0.75;;;16.90;82.20;;;;;;4229275;28;20083;-41
2020/12/20 06:27:47;;;;;;;0.00;0.00;;;16.90;82.10;;;;;;4229089;28;20059;-42
2020/12/20 06:30:08;;;;;;;0.45;0.43;;;17.10;81.60;;;;;;4228962;28;20074;-44
2020/12/20 06:32:42;;;;;;;0.00;0.00;;;17.20;81.20;;;;;;4229253;28;20501;-42
2020/12/20 06:35:12;;;;;;;0.30;0.30;;;17.30;80.90;;;;;;4229171;28;20075;-43
2020/12/20 06:37:33;;;;;;;0.10;0.10;;;17.30;80.50;;;;;;4228995;28;20089;-46
2020/12/20 06:39:54;;;;;;;0.00;0.00;;;17.30;80.40;;;;;;4228914;28;20052;-43
2020/12/20 06:42:35;;;;;;;0.30;0.30;;;17.30;80.60;;;;;;4227627;28;20060;-44
2020/12/20 06:45:12;;;;;;;0.00;0.00;;;17.20;80.90;;;;;;4228747;28;20052;-46
2020/12/20 06:47:42;;;;;;;0.00;0.00;;;17.10;81.30;;;;;;4229437;28;20085;-46
2020/12/20 06:50:03;;;;;;;0.10;0.10;;;17.00;81.60;;;;;;4231482;28;20083;-42
2020/12/20 06:52:27;;;;;;;0.00;0.00;;;16.90;82.10;;;;;;4232526;28;20066;-42
2020/12/20 06:55:02;;;;;;;0.20;0.20;;;16.80;82.60;;;;;;4232399;27;20051;-43
2020/12/20 06:57:24;;;;;;;0.00;0.00;;;16.90;82.70;;;;;;4232811;28;20051;-42
2020/12/20 06:59:47;;;;;;;0.00;0.00;;;17.00;81.80;;;;;;4232821;28;20507;-42
2020/12/20 07:02:45;;;;;;;0.52;0.52;;;17.20;81.20;;;;;;4232983;28;20425;-42
2020/12/20 07:05:05;;;;;;;0.10;0.10;;;17.20;80.80;;;;;;4232732;28;20055;-41
2020/12/20 07:07:26;;;;;;;0.00;0.00;;;17.20;80.80;;;;;;4232250;28;20501;-42
2020/12/20 07:09:47;;;;;;;0.15;0.15;;;17.10;81.00;;;;;;4232886;28;20058;-42
2020/12/20 07:12:08;;;;;;;0.00;0.00;;;17.10;81.50;;;;;;4233027;28;20079;-42
2020/12/20 07:14:35;;;;;;;0.00;0.00;;;17.00;81.70;;;;;;4231928;28;20131;-42
2020/12/20 07:16:56;;;;;;;0.00;0.00;;;16.90;82.20;;;;;;4231106;28;20727;-41
2020/12/20 07:19:22;;;;;;;0.28;0.28;;;16.90;82.50;;;;;;4232198;28;20087;-41
2020/12/20 07:21:59;;;;;;;0.00;0.00;;;16.80;83.00;;;;;;4232449;28;20414;-41
2020/12/20 07:24:22;;;;;;;0.17;0.17;;;16.80;82.90;;;;;;4231901;27;20055;-41
2020/12/20 07:26:44;;;;;;;0.00;0.00;;;16.90;82.70;;;;;;4232048;28;20127;-42
2020/12/20 07:29:06;;;;;;;0.00;0.00;;;17.00;82.00;;;;;;4231732;28;20051;-42
2020/12/20 07:31:27;;;;;;;0.52;0.52;;;17.20;81.50;;;;;;4232035;28;20044;-42
2020/12/20 07:33:50;;;;;;;1.73;1.65;;;17.20;80.90;;;;;;4220286;28;20054;-42
2020/12/20 07:36:12;;;;;;;2.80;0.68;;;17.20;80.80;;;;;;4231457;27;20047;-42
2020/12/20 07:38:33;;;;;;;0.22;0.22;;;17.20;80.80;;;;;;4231788;28;20446;-42
2020/12/20 07:40:54;;;;;;;0.00;0.00;;;17.30;80.10;;;;;;4230464;28;20104;-41
2020/12/20 07:43:18;;;;;;;0.10;0.10;;;17.40;79.60;;;;;;4230614;28;20073;-42
2020/12/20 07:45:39;;;;;;;0.20;0.20;;;17.40;79.40;;;;;;4228455;28;20047;-42
2020/12/20 07:48:00;;;;;;;0.10;0.10;;;17.30;79.60;;;;;;4231572;28;20418;-41
2020/12/20 07:50:22;;;;;;;0.00;0.00;;;17.20;79.80;;;;;;4230886;28;20108;-42
2020/12/20 07:52:48;;;;;;;0.00;0.00;;;17.20;80.10;;;;;;4230910;27;20533;-42
2020/12/20 07:55:10;;;;;;;0.00;0.00;;;17.10;80.50;;;;;;4231377;28;20481;-42
2020/12/20 07:57:33;;;;;;;0.00;0.00;;;16.90;80.80;;;;;;4214397;28;20056;-42
2020/12/20 08:00:04;;;;;;;0.00;0.00;;;16.90;81.30;;;;;;4229955;28;20051;-42
2020/12/20 08:02:33;;;;;;;0.00;0.00;;;16.80;81.50;;;;;;4222580;28;20039;-42
2020/12/20 08:05:04;;;;;;;0.20;0.20;;;16.70;82.40;;;;;;4231072;28;20127;-42
2020/12/20 08:07:25;;;;;;;0.10;0.10;;;16.60;84.50;;;;;;4216712;28;20588;-42
2020/12/20 08:09:54;;;;;;;0.90;0.90;;;16.60;85.90;;;;;;4230973;28;20694;-42
2020/12/20 08:12:18;;;;;;;0.00;0.00;;;16.50;86.80;;;;;;4230666;28;20138;-41
2020/12/20 08:14:39;;;;;;;1.95;1.27;;;16.50;87.20;;;;;;4216028;28;20444;-42
2020/12/20 08:16:59;;;;;;;0.57;0.57;;;16.40;87.90;;;;;;4231400;27;20039;-42
2020/12/20 08:19:25;;;;;;;0.10;0.10;;;16.50;87.40;;;;;;4226515;28;20052;-42
2020/12/20 08:21:57;;;;;;;0.00;0.00;;;16.60;86.30;;;;;;4231062;27;20048;-42
2020/12/20 08:24:21;;;;;;;0.22;0.22;;;16.80;85.70;;;;;;4230614;28;20108;-41
2020/12/20 08:26:44;;;;;;;0.00;0.00;;;16.80;86.50;;;;;;4230612;28;20124;-41
2020/12/20 08:29:06;;;;;;;8.35;2.17;;;16.80;87.10;;;;;;4230843;28;20051;-42
2020/12/20 08:31:36;;;;;;;2.00;1.83;;;16.80;87.30;;;;;;4231170;27;20079;-42
2020/12/20 08:33:57;;;;;;;;;;;16.80;87.10;;;;;;4227609;28;20047;-42
2020/12/20 08:36:21;;;;;;;0.65;0.65;;;16.80;87.40;;;;;;4230543;28;19967;-42
2020/12/20 08:38:42;;;;;;;0.10;0.10;;;16.70;87.20;;;;;;4230996;28;20047;-43
2020/12/20 08:41:19;;;;;;;0.00;0.00;;;16.70;87.00;;;;;;4230191;28;20048;-41
2020/12/20 08:43:40;;;;;;;0.22;0.22;;;16.50;87.30;;;;;;4226631;28;20052;-42
2020/12/20 08:46:02;;;;;;;1.13;1.10;;;16.50;87.30;;;;;;4231144;28;20109;-42
2020/12/20 08:48:29;;;;;;;0.08;0.08;;;16.40;87.30;;;;;;4230699;28;20057;-42
2020/12/20 08:50:55;;;;;;;0.57;0.57;;;16.30;87.30;;;;;;4230798;28;20139;-42
2020/12/20 08:53:16;;;;;;;0.43;0.43;;;16.30;87.40;;;;;;4230955;28;20047;-42
2020/12/20 08:55:37;;;;;;;0.32;0.32;;;16.20;87.30;;;;;;4230943;28;20138;-42
2020/12/20 08:58:02;;;;;;;0.65;0.65;;;16.40;86.60;;;;;;4230431;28;20055;-44
2020/12/20 09:00:23;;;;;;;0.00;0.00;;;16.60;85.20;;;;;;4230921;28;20093;-42
2020/12/20 09:02:45;;;;;;;0.17;0.17;;;16.80;84.20;;;;;;4230484;28;20056;-42
2020/12/20 09:05:06;;;;;;;;;;;16.90;83.60;;;;;;4231128;28;20066;-42
2020/12/20 09:07:30;;;;;;;;;;;17.00;83.00;;;;;;4231068;28;19920;-44
2020/12/20 09:10:01;;;;;;;0.08;0.08;;;17.00;82.60;;;;;;4230398;28;20788;-42
2020/12/20 09:12:22;;;;;;;;;;;17.00;82.40;;;;;;4230276;28;20132;-42
2020/12/20 09:15:09;;;;;;;0.40;0.40;;;17.00;82.50;;;;;;4230630;27;19930;-44
2020/12/20 09:17:36;;;;;;;0.55;0.55;;;16.90;82.70;;;;;;4230592;28;20290;-43
2020/12/20 09:19:57;;;;;;;0.10;0.10;;;16.90;82.40;;;;;;4230525;28;20063;-43
2020/12/20 09:22:18;;;;;;;0.00;0.00;;;17.00;82.00;;;;;;4230006;28;20051;-45
2020/12/20 09:24:47;;;;;;;0.13;0.13;;;17.10;81.70;;;;;;4230075;28;20052;-44
2020/12/20 09:27:10;;;;;;;0.00;0.00;;;17.00;81.50;;;;;;4230164;27;20134;-45
2020/12/20 09:29:31;;;;;;;0.00;0.00;;;17.00;82.60;;;;;;4230309;27;20055;-42
2020/12/20 09:31:53;;;;;;;;;;;16.90;81.90;;;;;;4230649;28;20047;-42
2020/12/20 09:34:18;;;;;;;0.00;0.00;;;16.80;82.20;;;;;;4230107;27;19953;-42
2020/12/20 09:36:39;;;;;;;2.30;1.02;;;16.70;82.60;;;;;;4230139;28;20060;-42
2020/12/20 09:39:04;;;;;;;0.17;0.17;;;17.00;82.00;;;;;;4229968;28;20101;-42
2020/12/20 09:41:27;;;;;;;0.00;0.00;;;17.80;78.20;;;;;;4229792;28;20086;-42
2020/12/20 09:43:50;;;;;;;0.40;0.32;;;18.70;73.40;;;;;;4229645;28;20490;-42
2020/12/20 09:46:19;;;;;;;0.10;0.10;;;19.60;69.00;;;;;;4229417;28;20113;-42
2020/12/20 09:48:40;;;;;;;0.00;0.00;;;20.50;64.70;;;;;;4229941;28;20512;-42
2020/12/20 09:51:02;;;;;;;0.00;0.00;;;21.30;60.80;;;;;;4229969;28;20410;-42
2020/12/20 09:53:24;;;;;;;0.57;0.57;;;22.10;57.90;;;;;;4229987;28;20137;-42
2020/12/20 09:55:45;;;;;;;;;;;22.80;55.40;;;;;;4230229;28;20075;-42
2020/12/20 09:58:05;;;;;;;0.00;0.00;;;23.40;53.70;;;;;;4229879;28;20378;-42
2020/12/20 10:00:32;;;;;;;0.35;0.35;;;23.70;52.60;;;;;;4229874;28;20056;-43
2020/12/20 10:02:53;;;;;;;0.47;0.47;;;23.80;51.90;;;;;;4229568;28;20059;-42
2020/12/20 10:05:14;;;;;;;0.00;0.00;;;23.80;51.70;;;;;;4229403;28;20055;-43
2020/12/20 10:07:36;;;;;;;0.05;0.05;;;23.60;52.40;;;;;;4229826;28;20062;-43
2020/12/20 10:09:57;;;;;;;0.38;0.38;;;23.30;52.90;;;;;;4229698;28;20139;-42
2020/12/20 10:12:18;;;;;;;0.00;0.00;;;22.90;53.90;;;;;;4229685;28;20055;-42
2020/12/20 10:14:39;;;;;;;0.00;0.00;;;22.50;55.10;;;;;;4229629;28;20409;-43
2020/12/20 10:17:00;;;;;;;0.38;0.35;;;22.10;56.00;;;;;;4229616;28;20682;-42
2020/12/20 10:19:21;;;;;;;0.10;0.10;;;21.70;57.10;;;;;;4229514;28;20051;-42
2020/12/20 10:21:41;;;;;;;0.10;0.10;;;21.30;58.20;;;;;;4229554;28;20051;-42
2020/12/20 10:24:03;;;;;;;0.00;0.00;;;21.10;59.10;;;;;;4229001;28;20115;-42
2020/12/20 10:26:24;;;;;;;0.08;0.08;;;21.00;59.60;;;;;;4229484;28;20460;-42
2020/12/20 10:28:46;;;;;;;0.70;0.70;;;21.00;59.50;;;;;;4229316;28;20054;-42
2020/12/20 10:31:07;;;;;;;0.25;0.25;;;21.10;59.00;;;;;;4229420;28;20063;-42
2020/12/20 10:33:28;;;;;;;0.00;0.00;;;21.20;58.70;;;;;;4229827;28;20603;-43
2020/12/20 10:35:49;;;;;;;;;;;21.30;58.30;;;;;;4229829;28;20056;-42
2020/12/20 10:38:10;;;;;;;0.10;0.10;;;21.40;58.00;;;;;;4229618;28;20016;-42
2020/12/20 10:40:32;;;;;;;;;;;21.40;57.90;;;;;;4229519;28;20047;-42
2020/12/20 10:42:53;;;;;;;0.00;0.00;;;21.50;57.50;;;;;;4229629;28;19930;-42
2020/12/20 10:45:15;;;;;;;;;;;21.50;57.30;;;;;;4229724;28;20055;-43
2020/12/20 10:47:36;;;;;;;11.50;1.02;;;21.50;57.10;;;;;;4229317;28;20289;-43
2020/12/20 10:49:57;;;;;;;0.00;0.00;;;21.60;56.90;;;;;;4229356;28;20062;-43
2020/12/20 10:52:19;;;;;;;0.03;0.03;;;21.60;57.00;;;;;;4229046;28;20122;-43
2020/12/20 10:54:40;;;;;;;0.43;0.43;;;21.50;56.90;;;;;;4229137;28;20051;-42
2020/12/20 10:57:03;;;;;;;1.17;0.70;;;21.60;56.70;;;;;;4212468;28;20418;-42
2020/12/20 10:59:24;;;;;;;0.10;0.10;;;21.60;56.50;;;;;;4212433;28;20192;-44
2020/12/20 11:01:45;;;;;;;0.28;0.28;;;21.60;56.50;;;;;;4212435;28;20052;-42
2020/12/20 11:04:08;;;;;;;0.25;0.25;;;21.60;56.50;;;;;;4212174;28;20105;-42
2020/12/20 11:06:30;;;;;;;0.10;0.10;;;21.60;56.30;;;;;;4212232;28;20156;-43
2020/12/20 11:08:51;;;;;;;2.38;1.85;;;21.60;56.50;;;;;;4212276;28;20081;-43
2020/12/20 11:11:13;;;;;;;0.00;0.00;;;21.60;56.20;;;;;;4212240;28;20135;-42
2020/12/20 11:13:40;;;;;;;0.30;0.30;;;21.60;56.20;;;;;;4212206;28;20048;-43
2020/12/20 11:16:01;;;;;;;0.00;0.00;;;21.60;56.30;;;;;;4212256;28;20044;-42
2020/12/20 11:18:22;;;;;;;0.28;0.28;;;21.60;56.00;;;;;;4212349;28;20071;-42
2020/12/20 11:20:43;;;;;;;0.28;0.28;;;21.70;56.40;;;;;;4212349;28;20056;-42
2020/12/20 11:23:04;;;;;;;0.52;0.52;;;21.70;55.40;;;;;;4220490;28;20504;-43
2020/12/20 11:25:25;;;;;;;0.00;0.00;;;21.70;55.40;;;;;;4228848;28;20142;-42
2020/12/20 11:27:46;;;;;;;0.00;0.00;;;21.80;55.50;;;;;;4229113;28;20075;-43
2020/12/20 11:30:08;;;;;;;;;;;21.80;55.40;;;;;;4228931;28;20056;-43
2020/12/20 11:32:32;;;;;;;0.10;0.10;;;21.80;55.40;;;;;;4228076;28;19920;-42
2020/12/20 11:34:53;;;;;;;0.10;0.10;;;21.80;55.20;;;;;;4228892;28;20134;-41
2020/12/20 11:37:15;;;;;;;;;;;21.80;55.20;;;;;;4230406;28;20127;-41
2020/12/20 11:39:36;;;;;;;0.00;0.00;;;21.70;56.20;;;;;;4230175;28;19926;-43
2020/12/20 11:41:57;;;;;;;0.55;0.55;;;21.70;56.40;;;;;;4230990;28;20048;-41
2020/12/20 11:44:19;;;;;;;0.10;0.10;;;21.50;56.80;;;;;;4227724;28;20050;-42
2020/12/20 11:46:40;;;;;;;0.10;0.10;;;21.50;57.00;;;;;;4231729;28;20048;-42
2020/12/20 11:49:02;;;;;;;2.63;0.82;;;21.60;57.00;;;;;;4231355;28;20050;-42
2020/12/20 11:51:26;;;;;;;1.27;0.93;;;21.60;56.80;;;;;;4231712;28;20191;-42
2020/12/20 11:53:50;;;;;;;0.52;0.52;;;21.70;57.20;;;;;;4231243;28;20044;-42
2020/12/20 11:56:13;;;;;;;0.00;0.00;;;21.70;57.00;;;;;;4231421;28;20059;-41
2020/12/20 11:58:34;;;;;;;0.20;0.20;;;21.70;57.00;;;;;;4230837;28;20125;-42
2020/12/20 12:00:55;;;;;;;0.03;0.03;;;21.70;57.20;;;;;;4231715;27;20122;-41
2020/12/20 12:03:17;;;;;;;14.13;1.17;;;21.60;57.50;;;;;;4230832;28;20050;-43
2020/12/20 12:05:39;;;;;;;0.35;0.35;;;21.50;58.00;;;;;;4231188;28;20477;-44
2020/12/20 12:08:01;;;;;;;0.20;0.20;;;21.50;58.30;;;;;;4230978;28;20047;-42
2020/12/20 12:10:21;;;;;;;1.65;1.55;;;21.60;58.20;;;;;;4231183;28;20051;-42
2020/12/20 12:12:42;;;;;;;38.53;2.45;;;21.70;58.00;;;;;;4230899;28;20052;-42
2020/12/20 12:15:04;;;;;;;0.45;0.45;;;21.70;57.70;;;;;;4223958;28;20482;-42
2020/12/20 12:17:25;;;;;;;0.00;0.00;;;21.70;57.90;;;;;;4231199;28;20085;-42
2020/12/20 12:19:47;;;;;;;0.30;0.30;;;21.60;58.30;;;;;;4231253;28;20051;-42
2020/12/20 12:22:08;;;;;;;0.20;0.20;;;21.40;58.80;;;;;;4231329;28;20075;-42
2020/12/20 12:24:29;;;;;;;0.20;0.20;;;21.30;59.40;;;;;;4230973;28;20512;-42
2020/12/20 12:26:50;;;;;;;1.90;1.80;;;21.10;60.00;;;;;;4230801;28;20047;-41
2020/12/20 12:29:16;;;;;;;0.00;0.00;;;21.00;60.30;;;;;;4231043;28;20571;-41
2020/12/20 12:31:37;;;;;;;0.35;0.35;;;21.10;60.20;;;;;;4231163;28;20071;-41
2020/12/20 12:33:58;;;;;;;0.00;0.00;;;21.10;60.00;;;;;;4230166;28;20055;-42
2020/12/20 12:36:19;;;;;;;0.00;0.00;;;21.20;60.00;;;;;;4230852;28;20055;-42